createdAt,value
2022-08-05T00:01:28.576Z,2.92
2022-08-05T00:03:57.229Z,2.85
2022-08-05T00:06:30.791Z,2.80
2022-08-05T00:09:00.640Z,2.80
2022-08-05T00:11:34.591Z,2.70
2022-08-05T00:14:12.834Z,2.80
2022-08-05T00:16:52.561Z,2.90
2022-08-05T00:19:24.681Z,3.10
2022-08-05T00:21:52.552Z,2.80
2022-08-05T00:24:24.696Z,2.80
2022-08-05T00:26:57.650Z,2.90
2022-08-05T00:29:25.959Z,2.90
2022-08-05T00:32:10.920Z,2.80
2022-08-05T00:34:55.131Z,2.58
2022-08-05T00:37:50.510Z,2.75
2022-08-05T00:40:14.814Z,2.45
2022-08-05T00:42:48.256Z,2.65
2022-08-05T00:45:16.694Z,2.70
2022-08-05T00:47:57.778Z,2.70
2022-08-05T00:50:31.934Z,2.70
2022-08-05T00:52:58.536Z,2.90
2022-08-05T00:55:42.399Z,2.90
2022-08-05T00:58:13.747Z,2.85
2022-08-05T01:00:42.253Z,3.13
2022-08-05T01:03:22.406Z,3.00
2022-08-05T01:05:51.201Z,3.00
2022-08-05T01:08:40.188Z,3.22
2022-08-05T01:11:36.648Z,3.00
2022-08-05T01:14:27.879Z,2.72
2022-08-05T01:17:07.659Z,3.00
2022-08-05T01:20:00.912Z,2.58
2022-08-05T01:22:42.969Z,2.50
2022-08-05T01:25:53.339Z,2.40
2022-08-05T01:28:26.643Z,2.78
2022-08-05T01:31:08.525Z,2.85
2022-08-05T01:33:48.990Z,2.80
2022-08-05T01:36:21.173Z,2.65
2022-08-05T01:38:56.463Z,2.90
2022-08-05T01:41:32.288Z,2.90
2022-08-05T01:44:01.339Z,2.60
2022-08-05T01:46:41.620Z,2.42
2022-08-05T01:51:55.959Z,2.40
2022-08-05T01:54:27.133Z,2.85
2022-08-05T01:58:29.499Z,2.63
2022-08-05T01:59:47.203Z,2.40
2022-08-05T02:02:16.012Z,2.75
2022-08-05T02:04:49.703Z,2.60
2022-08-05T02:07:22.228Z,2.47
2022-08-05T02:09:51.260Z,2.70
2022-08-05T02:12:20.753Z,2.45
2022-08-05T02:15:00.852Z,2.55
2022-08-05T02:18:31.138Z,2.35
2022-08-05T02:20:25.073Z,2.40
2022-08-05T02:23:08.840Z,2.75
2022-08-05T02:25:50.012Z,2.35
2022-08-05T02:28:29.003Z,2.22
2022-08-05T02:31:05.954Z,2.70
2022-08-05T02:33:40.917Z,2.38
2022-08-05T02:36:13.555Z,2.22
2022-08-05T02:38:53.348Z,2.08
2022-08-05T02:41:22.982Z,2.50
2022-08-05T02:44:06.241Z,2.10
2022-08-05T02:46:53.114Z,2.30
2022-08-05T02:49:36.215Z,2.35
2022-08-05T02:52:11.595Z,2.58
2022-08-05T02:54:42.809Z,2.42
2022-08-05T02:58:11.474Z,2.47
2022-08-05T03:00:09.864Z,2.40
2022-08-05T03:02:42.933Z,2.22
2022-08-05T03:05:12.655Z,2.45
2022-08-05T03:08:00.584Z,2.13
2022-08-05T03:10:27.900Z,2.30
2022-08-05T03:12:55.026Z,2.35
2022-08-05T03:15:23.515Z,2.20
2022-08-05T03:17:54.264Z,2.40
2022-08-05T03:22:51.338Z,2.22
2022-08-05T03:25:33.342Z,2.28
2022-08-05T03:28:10.855Z,2.47
2022-08-05T03:30:41.280Z,2.63
2022-08-05T03:33:09.471Z,2.58
2022-08-05T03:35:40.522Z,2.65
2022-08-05T03:38:12.728Z,2.78
2022-08-05T03:40:47.515Z,3.00
2022-08-05T03:44:10.015Z,2.70
2022-08-05T03:46:04.492Z,2.92
2022-08-05T03:48:35.339Z,2.63
2022-08-05T03:52:38.509Z,2.40
2022-08-05T03:55:00.289Z,2.50
2022-08-05T03:56:54.637Z,2.85
2022-08-05T03:59:54.315Z,2.72
2022-08-05T04:02:38.813Z,2.63
2022-08-05T04:05:09.950Z,2.47
2022-08-05T04:07:57.454Z,2.75
2022-08-05T04:10:28.417Z,2.75
2022-08-05T04:13:00.040Z,2.97
2022-08-05T04:15:32.728Z,2.70
2022-08-05T04:18:03.942Z,2.60
2022-08-05T04:20:34.308Z,3.08
2022-08-05T04:23:01.125Z,3.20
2022-08-05T04:25:56.887Z,3.10
2022-08-05T04:28:17.204Z,3.08
2022-08-05T04:30:44.709Z,2.65
2022-08-05T04:33:12.366Z,2.83
2022-08-05T04:36:15.864Z,2.75
2022-08-05T04:38:39.983Z,2.80
2022-08-05T04:41:09.342Z,2.58
2022-08-05T04:43:37.681Z,2.78
2022-08-05T04:46:07.363Z,2.80
2022-08-05T04:48:34.243Z,3.40
2022-08-05T04:51:11.086Z,3.13
2022-08-05T04:53:38.870Z,3.10
2022-08-05T04:56:15.129Z,3.10
2022-08-05T04:58:56.890Z,3.00
2022-08-05T05:02:06.350Z,3.25
2022-08-05T05:04:10.673Z,2.60
2022-08-05T05:06:44.168Z,2.67
2022-08-05T05:09:14.248Z,2.80
2022-08-05T05:11:53.151Z,2.72
2022-08-05T05:14:31.432Z,2.60
2022-08-05T05:17:00.027Z,2.55
2022-08-05T05:19:27.462Z,2.50
2022-08-05T05:22:22.751Z,2.67
2022-08-05T05:24:56.916Z,3.00
2022-08-05T05:27:44.867Z,3.40
2022-08-05T05:30:15.288Z,3.05
2022-08-05T05:32:55.705Z,2.95
2022-08-05T05:35:23.309Z,3.13
2022-08-05T05:38:01.339Z,3.10
2022-08-05T05:40:32.073Z,3.40
2022-08-05T05:42:59.946Z,3.08
2022-08-05T05:45:29.338Z,3.03
2022-08-05T05:48:07.834Z,3.22
2022-08-05T05:50:41.323Z,3.13
2022-08-05T05:53:21.454Z,3.00
2022-08-05T05:55:51.606Z,3.00
2022-08-05T05:58:31.420Z,3.00
2022-08-05T06:04:00.630Z,3.50
2022-08-05T06:06:30.957Z,3.00
2022-08-05T06:09:00.586Z,3.20
2022-08-05T06:11:29.015Z,2.95
2022-08-05T06:13:56.677Z,3.08
2022-08-05T06:16:29.065Z,3.15
2022-08-05T06:19:00.015Z,2.60
2022-08-05T06:21:35.773Z,3.30
2022-08-05T06:24:11.426Z,3.75
2022-08-05T06:26:51.343Z,3.08
2022-08-05T06:29:24.963Z,3.85
2022-08-05T06:32:17.231Z,3.33
2022-08-05T06:34:56.621Z,4.00
2022-08-05T06:37:56.926Z,3.47
2022-08-05T06:40:12.750Z,3.50
2022-08-05T06:42:40.780Z,3.50
2022-08-05T06:45:09.183Z,3.45
2022-08-05T06:48:35.996Z,3.28
2022-08-05T06:50:23.785Z,3.10
2022-08-05T06:52:58.548Z,3.17
2022-08-05T06:55:30.319Z,3.03
2022-08-05T06:58:19.925Z,3.00
2022-08-05T07:00:47.449Z,3.03
2022-08-05T07:03:15.232Z,3.45
2022-08-05T07:05:43.466Z,2.83
2022-08-05T07:08:10.930Z,3.10
2022-08-05T07:10:53.364Z,2.85
2022-08-05T07:13:57.583Z,2.50
2022-08-05T07:18:01.492Z,2.53
2022-08-05T07:22:28.747Z,2.53
2022-08-05T07:24:58.190Z,2.60
2022-08-05T07:27:27.617Z,2.78
2022-08-05T07:30:27.640Z,2.63
2022-08-05T07:32:57.785Z,2.58
2022-08-05T07:36:03.255Z,2.70
2022-08-05T07:38:12.340Z,2.90
2022-08-05T07:41:00.409Z,2.50
2022-08-05T07:43:31.456Z,3.00
2022-08-05T07:46:01.694Z,3.03
2022-08-05T07:49:01.972Z,2.60
2022-08-05T07:51:23.557Z,2.50
2022-08-05T07:54:02.692Z,2.58
2022-08-05T07:56:49.018Z,2.85
2022-08-05T07:59:16.795Z,2.50
2022-08-05T08:04:37.426Z,2.50
2022-08-05T08:07:07.134Z,2.40
2022-08-05T08:09:34.636Z,2.60
2022-08-05T08:12:11.179Z,2.88
2022-08-05T08:14:46.596Z,2.58
2022-08-05T08:17:15.722Z,2.47
2022-08-05T08:20:10.693Z,2.63
2022-08-05T08:22:31.065Z,2.50
2022-08-05T08:25:03.213Z,2.50
2022-08-05T08:27:40.021Z,2.72
2022-08-05T08:30:18.977Z,2.40
2022-08-05T08:32:56.992Z,2.45
2022-08-05T08:35:26.781Z,2.65
2022-08-05T08:37:56.454Z,2.40
2022-08-05T08:40:24.408Z,2.22
2022-08-05T08:42:53.462Z,2.25
2022-08-05T08:45:26.977Z,2.78
2022-08-05T08:48:07.566Z,2.33
2022-08-05T08:51:03.583Z,2.38
2022-08-05T08:53:44.485Z,2.20
2022-08-05T08:56:12.182Z,2.25
2022-08-05T08:58:44.666Z,2.72
2022-08-05T09:01:17.073Z,2.28
2022-08-05T09:03:48.243Z,2.78
2022-08-05T09:06:21.213Z,2.53
2022-08-05T09:08:50.733Z,2.40
2022-08-05T09:11:17.428Z,2.40
2022-08-05T09:14:54.334Z,2.35
2022-08-05T09:16:51.848Z,2.42
2022-08-05T09:19:19.157Z,2.28
2022-08-05T09:22:23.170Z,2.65
2022-08-05T09:24:44.856Z,2.65
2022-08-05T09:28:05.094Z,2.30
2022-08-05T09:30:18.374Z,2.50
2022-08-05T09:32:51.691Z,2.25
2022-08-05T09:35:26.775Z,2.50
2022-08-05T09:38:16.907Z,2.30
2022-08-05T09:40:52.198Z,2.50
2022-08-05T09:43:28.232Z,2.15
2022-08-05T09:46:28.029Z,2.40
2022-08-05T09:49:08.291Z,2.60
2022-08-05T09:51:43.185Z,2.40
2022-08-05T09:54:11.439Z,2.30
2022-08-05T09:56:39.555Z,2.20
2022-08-05T09:59:07.379Z,2.30
2022-08-05T10:01:40.605Z,2.22
2022-08-05T10:04:16.095Z,2.00
2022-08-05T10:06:59.578Z,2.15
2022-08-05T10:09:29.318Z,2.35
2022-08-05T10:12:30.530Z,1.95
2022-08-05T10:15:17.015Z,2.10
2022-08-05T10:17:54.496Z,2.25
2022-08-05T10:20:25.785Z,2.40
2022-08-05T10:22:52.910Z,2.03
2022-08-05T10:25:20.103Z,2.30
2022-08-05T10:28:12.823Z,2.25
2022-08-05T10:32:47.089Z,2.28
2022-08-05T10:33:28.844Z,2.10
2022-08-05T10:35:59.852Z,2.13
2022-08-05T10:38:29.730Z,2.00
2022-08-05T10:41:24.008Z,2.10
2022-08-05T10:44:01.428Z,1.75
2022-08-05T10:46:53.974Z,1.90
2022-08-05T10:49:26.922Z,2.10
2022-08-05T10:52:02.551Z,2.10
2022-08-05T10:55:03.540Z,2.05
2022-08-05T10:57:33.765Z,2.30
2022-08-05T11:00:19.098Z,2.05
2022-08-05T11:03:23.228Z,2.10
2022-08-05T11:06:15.651Z,2.00
2022-08-05T11:09:16.365Z,2.22
2022-08-05T11:11:52.391Z,1.95
2022-08-05T11:14:42.772Z,2.10
2022-08-05T11:17:57.922Z,2.20
2022-08-05T11:20:43.897Z,1.90
2022-08-05T11:23:33.578Z,1.75
2022-08-05T11:26:16.704Z,2.15
2022-08-05T11:28:56.784Z,2.05
2022-08-05T11:31:57.433Z,2.28
2022-08-05T11:34:36.963Z,2.00
2022-08-05T11:37:06.171Z,2.38
2022-08-05T11:39:55.211Z,2.00
2022-08-05T11:42:27.930Z,2.20
2022-08-05T11:47:49.639Z,1.98
2022-08-05T11:50:17.816Z,2.20
2022-08-05T11:52:48.418Z,2.10
2022-08-05T11:55:16.632Z,2.30
2022-08-05T11:58:09.556Z,2.05
2022-08-05T12:00:38.028Z,2.00
2022-08-05T12:03:28.494Z,2.25
2022-08-05T12:06:01.711Z,2.10
2022-08-05T12:08:31.700Z,2.00
2022-08-05T12:11:05.526Z,2.20
2022-08-05T12:13:48.889Z,1.90
2022-08-05T12:16:20.052Z,2.00
2022-08-05T12:18:56.503Z,2.00
2022-08-05T12:21:29.865Z,2.15
2022-08-05T12:24:05.091Z,2.10
2022-08-05T12:26:44.167Z,2.17
2022-08-05T12:29:38.721Z,2.10
2022-08-05T12:32:07.615Z,2.20
2022-08-05T12:34:37.828Z,2.05
2022-08-05T12:37:17.098Z,1.98
2022-08-05T12:39:51.165Z,2.10
2022-08-05T12:42:20.054Z,2.20
2022-08-05T12:44:47.819Z,2.17
2022-08-05T12:47:27.110Z,1.98
2022-08-05T12:50:03.112Z,2.10
2022-08-05T12:52:39.561Z,2.10
2022-08-05T12:55:23.895Z,2.00
2022-08-05T12:58:48.828Z,1.98
2022-08-05T13:02:01.314Z,1.92
2022-08-05T13:03:41.511Z,1.90
2022-08-05T13:06:12.768Z,2.10
2022-08-05T13:08:39.982Z,1.90
2022-08-05T13:11:07.946Z,1.90
2022-08-05T13:14:05.399Z,1.92
2022-08-05T13:16:28.007Z,1.83
2022-08-05T13:18:58.457Z,2.20
2022-08-05T13:21:27.800Z,1.90
2022-08-05T13:23:55.683Z,2.20
2022-08-05T13:26:29.818Z,2.15
2022-08-05T13:28:57.470Z,2.20
2022-08-05T13:31:34.082Z,2.25
2022-08-05T13:34:24.989Z,2.20
2022-08-05T13:36:55.826Z,2.00
2022-08-05T13:40:13.659Z,2.08
2022-08-05T13:42:14.318Z,2.00
2022-08-05T13:44:46.305Z,1.90
2022-08-05T13:47:34.998Z,2.10
2022-08-05T13:50:04.114Z,1.90
2022-08-05T13:52:35.644Z,2.08
2022-08-05T13:55:07.948Z,2.00
2022-08-05T13:57:51.391Z,2.10
2022-08-05T14:00:27.667Z,1.90
2022-08-05T14:03:01.022Z,1.92
2022-08-05T14:05:48.220Z,1.95
2022-08-05T14:08:21.178Z,2.20
2022-08-05T14:10:54.397Z,2.13
2022-08-05T14:13:30.320Z,1.85
2022-08-05T14:16:04.490Z,2.00
2022-08-05T14:18:33.072Z,2.15
2022-08-05T14:21:00.152Z,1.92
2022-08-05T14:23:36.335Z,1.98
2022-08-05T14:26:04.973Z,2.08
2022-08-05T14:28:33.384Z,1.90
2022-08-05T14:31:01.764Z,1.98
2022-08-05T14:33:57.051Z,4.60
2022-08-05T14:36:16.188Z,2.20
2022-08-05T14:38:48.651Z,2.15
2022-08-05T14:41:17.777Z,2.00
2022-08-05T14:44:02.298Z,2.00
2022-08-05T14:46:32.706Z,2.05
2022-08-05T14:49:06.510Z,2.50
2022-08-05T14:51:37.650Z,2.10
2022-08-05T14:54:27.601Z,2.13
2022-08-05T14:56:54.639Z,2.28
2022-08-05T14:59:21.804Z,1.80
2022-08-05T15:01:49.849Z,2.25
2022-08-05T15:04:22.274Z,2.33
2022-08-05T15:06:50.702Z,2.20
2022-08-05T15:09:51.410Z,2.10
2022-08-05T15:12:06.125Z,2.33
2022-08-05T15:14:48.231Z,1.90
2022-08-05T15:20:06.083Z,2.00
2022-08-05T15:22:33.393Z,2.35
2022-08-05T15:25:00.553Z,2.25
2022-08-05T15:27:38.825Z,2.03
2022-08-05T15:30:11.059Z,2.10
2022-08-05T15:32:41.171Z,2.00
2022-08-05T15:35:10.650Z,2.17
2022-08-05T15:38:34.178Z,2.10
2022-08-05T15:40:58.548Z,2.05
2022-08-05T15:43:20.332Z,2.20
2022-08-05T15:45:48.108Z,2.10
2022-08-05T15:48:28.382Z,2.00
2022-08-05T15:50:56.336Z,2.13
2022-08-05T15:53:26.508Z,2.00
2022-08-05T15:56:11.564Z,1.90
2022-08-05T15:58:40.111Z,2.00
2022-08-05T16:01:17.064Z,2.00
2022-08-05T16:03:48.332Z,2.00
2022-08-05T16:06:20.346Z,2.05
2022-08-05T16:08:47.920Z,2.13
2022-08-05T16:11:18.266Z,2.23
2022-08-05T16:13:47.652Z,2.50
2022-08-05T16:16:15.494Z,2.08
2022-08-05T16:18:52.917Z,2.30
2022-08-05T16:21:20.833Z,2.40
2022-08-05T16:24:07.611Z,2.20
2022-08-05T16:27:03.053Z,2.30
2022-08-05T16:29:37.424Z,2.40
2022-08-05T16:32:05.256Z,2.10
2022-08-05T16:34:32.321Z,1.98
2022-08-05T16:36:59.033Z,2.40
2022-08-05T16:40:04.735Z,2.13
2022-08-05T16:42:17.581Z,2.10
2022-08-05T16:44:54.219Z,2.33
2022-08-05T16:47:28.772Z,2.00
2022-08-05T16:50:04.715Z,2.22
2022-08-05T16:52:33.391Z,2.25
2022-08-05T16:55:00.588Z,2.42
2022-08-05T16:57:50.471Z,2.10
2022-08-05T17:02:58.389Z,2.15
2022-08-05T17:05:25.106Z,1.85
2022-08-05T17:07:54.486Z,2.00
2022-08-05T17:10:21.769Z,2.10
2022-08-05T17:12:54.836Z,2.17
2022-08-05T17:15:21.692Z,2.40
2022-08-05T17:17:54.745Z,2.10
2022-08-05T17:20:22.274Z,2.00
2022-08-05T17:22:55.362Z,2.00
2022-08-05T17:25:39.654Z,2.20
2022-08-05T17:28:07.017Z,2.10
2022-08-05T17:30:50.413Z,2.10
2022-08-05T17:33:19.975Z,2.10
2022-08-05T17:36:07.876Z,2.42
2022-08-05T17:38:33.855Z,2.13
2022-08-05T17:41:01.840Z,2.00
2022-08-05T17:43:46.995Z,2.22
2022-08-05T17:46:14.212Z,2.22
2022-08-05T17:48:43.198Z,2.28
2022-08-05T17:51:11.521Z,2.40
2022-08-05T17:53:39.430Z,2.30
2022-08-05T17:56:09.427Z,2.20
2022-08-05T17:58:37.777Z,2.30
2022-08-05T18:01:09.567Z,2.00
2022-08-05T18:06:29.454Z,2.30
2022-08-05T18:08:57.776Z,2.20
2022-08-05T18:11:33.398Z,2.25
2022-08-05T18:14:07.113Z,2.33
2022-08-05T18:16:35.739Z,2.17
2022-08-05T18:19:18.435Z,2.00
2022-08-05T18:22:07.712Z,2.53
2022-08-05T18:24:36.509Z,2.40
2022-08-05T18:27:03.335Z,2.10
2022-08-05T18:29:39.910Z,2.25
2022-08-05T18:32:12.956Z,2.50
2022-08-05T18:34:41.438Z,2.45
2022-08-05T18:37:12.497Z,2.15
2022-08-05T18:40:30.933Z,2.45
2022-08-05T18:42:26.183Z,2.50
2022-08-05T18:44:56.306Z,2.30
2022-08-05T18:47:26.734Z,2.42
2022-08-05T18:50:12.268Z,2.20
2022-08-05T18:52:50.573Z,2.47
2022-08-05T18:55:19.527Z,2.42
2022-08-05T18:57:52.897Z,2.40
2022-08-05T19:00:48.741Z,2.50
2022-08-05T19:03:15.521Z,2.47
2022-08-05T19:06:12.348Z,2.47
2022-08-05T19:08:30.875Z,2.42
2022-08-05T19:10:59.428Z,3.10
2022-08-05T19:13:29.455Z,2.60
2022-08-05T19:16:03.458Z,2.30
2022-08-05T19:18:31.277Z,2.70
2022-08-05T19:20:59.555Z,2.60
2022-08-05T19:24:08.171Z,2.58
2022-08-05T19:26:14.633Z,2.40
2022-08-05T19:28:43.591Z,2.20
2022-08-05T19:31:13.410Z,2.60
2022-08-05T19:33:48.376Z,2.53
2022-08-05T19:36:23.321Z,2.42
2022-08-05T19:38:50.103Z,2.53
2022-08-05T19:41:16.944Z,2.30
2022-08-05T19:44:05.402Z,2.55
2022-08-05T19:46:40.640Z,2.53
2022-08-05T19:49:08.089Z,2.20
2022-08-05T19:52:09.240Z,2.53
2022-08-05T19:54:31.488Z,2.50
2022-08-05T19:57:02.117Z,2.50
2022-08-05T19:59:55.339Z,3.15
2022-08-05T20:02:22.376Z,2.58
2022-08-05T20:04:49.980Z,2.50
2022-08-05T20:07:47.049Z,2.50
2022-08-05T20:10:13.440Z,2.70
2022-08-05T20:12:46.420Z,2.38
2022-08-05T20:15:47.843Z,2.72
2022-08-05T20:18:10.288Z,2.60
2022-08-05T20:20:55.996Z,2.60
2022-08-05T20:23:40.657Z,2.97
2022-08-05T20:26:16.635Z,3.05
2022-08-05T20:28:51.047Z,2.90
2022-08-05T20:31:21.838Z,3.10
2022-08-05T20:33:50.264Z,2.97
2022-08-05T20:36:17.954Z,2.60
2022-08-05T20:38:54.380Z,2.60
2022-08-05T20:41:44.253Z,2.80
2022-08-05T20:44:29.202Z,2.70
2022-08-05T20:47:01.667Z,2.63
2022-08-05T20:49:33.223Z,3.10
2022-08-05T20:52:05.474Z,3.10
2022-08-05T20:54:43.126Z,3.13
2022-08-05T20:57:42.269Z,2.67
2022-08-05T21:00:34.990Z,2.80
2022-08-05T21:03:01.561Z,2.88
2022-08-05T21:05:47.712Z,3.28
2022-08-05T21:08:15.184Z,2.90
2022-08-05T21:10:48.539Z,2.80
2022-08-05T21:13:37.881Z,3.10
2022-08-05T21:16:02.417Z,2.95
2022-08-05T21:18:30.533Z,2.70
2022-08-05T21:20:57.606Z,2.80
2022-08-05T21:23:24.884Z,3.05
2022-08-05T21:25:51.733Z,2.63
2022-08-05T21:28:23.756Z,3.00
2022-08-05T21:30:50.861Z,2.85
2022-08-05T21:33:22.512Z,2.90
2022-08-05T21:35:58.700Z,2.55
2022-08-05T21:38:26.803Z,2.90
2022-08-05T21:40:53.830Z,2.70
2022-08-05T21:43:24.615Z,3.00
2022-08-05T21:45:57.406Z,3.28
2022-08-05T21:48:28.921Z,2.90
2022-08-05T21:50:56.281Z,3.20
2022-08-05T21:53:27.268Z,3.25
2022-08-05T21:56:06.136Z,3.50
2022-08-05T21:58:42.030Z,3.50
2022-08-05T22:01:10.552Z,3.10
2022-08-05T22:03:48.430Z,3.45
2022-08-05T22:06:16.401Z,3.70
2022-08-05T22:08:52.054Z,3.05
2022-08-05T22:11:35.097Z,3.03
2022-08-05T22:14:34.386Z,3.17
2022-08-05T22:16:53.045Z,3.20
2022-08-05T22:20:01.004Z,3.45
2022-08-05T22:22:22.882Z,3.40
2022-08-05T22:25:18.008Z,3.38
2022-08-05T22:28:09.438Z,3.95
2022-08-05T22:30:55.784Z,3.20
2022-08-05T22:33:58.112Z,3.20
2022-08-05T22:36:15.311Z,3.55
2022-08-05T22:38:43.966Z,3.00
2022-08-05T22:41:16.814Z,3.25
2022-08-05T22:44:04.038Z,3.33
2022-08-05T22:46:31.171Z,3.47
2022-08-05T22:48:59.168Z,3.72
2022-08-05T22:52:04.393Z,4.00
2022-08-05T22:54:12.700Z,3.22
2022-08-05T22:56:40.686Z,3.15
2022-08-05T22:59:43.833Z,2.97
2022-08-05T23:02:06.272Z,3.13
2022-08-05T23:04:34.975Z,3.17
2022-08-05T23:07:02.094Z,3.13
2022-08-05T23:09:53.362Z,2.83
2022-08-05T23:12:18.083Z,2.85
2022-08-05T23:14:45.425Z,2.53
2022-08-05T23:17:35.086Z,2.75
2022-08-05T23:20:17.460Z,3.10
2022-08-05T23:22:48.366Z,2.70
2022-08-05T23:25:52.816Z,2.80
2022-08-05T23:28:06.773Z,2.72
2022-08-05T23:30:40.258Z,2.30
2022-08-05T23:33:16.309Z,2.63
2022-08-05T23:35:50.305Z,3.17
2022-08-05T23:38:17.302Z,3.00
2022-08-05T23:40:49.438Z,2.53
2022-08-05T23:43:25.700Z,3.00
2022-08-05T23:46:04.655Z,2.70
2022-08-05T23:48:31.295Z,2.65
2022-08-05T23:50:59.583Z,2.90
2022-08-05T23:53:46.139Z,2.60
2022-08-05T23:56:13.399Z,2.78
2022-08-05T23:58:47.050Z,2.65
